createdAt,value
2022-10-07T00:01:13.218Z,4.70
2022-10-07T00:03:40.712Z,5.03
2022-10-07T00:06:15.343Z,4.63
2022-10-07T00:08:43.913Z,5.10
2022-10-07T00:11:12.663Z,5.00
2022-10-07T00:13:40.483Z,4.80
2022-10-07T00:16:08.877Z,4.93
2022-10-07T00:18:36.435Z,4.80
2022-10-07T00:21:07.924Z,5.07
2022-10-07T00:23:35.303Z,4.80
2022-10-07T00:26:03.162Z,4.80
2022-10-07T00:28:30.441Z,4.90
2022-10-07T00:30:58.308Z,5.30
2022-10-07T00:33:25.422Z,4.73
2022-10-07T00:35:52.452Z,4.63
2022-10-07T00:38:19.547Z,4.23
2022-10-07T00:40:46.655Z,4.10
2022-10-07T00:43:20.773Z,5.13
2022-10-07T00:45:47.980Z,4.63
2022-10-07T00:48:16.492Z,4.63
2022-10-07T00:50:43.639Z,4.37
2022-10-07T00:53:10.965Z,4.53
2022-10-07T00:55:38.063Z,4.23
2022-10-07T00:58:09.623Z,5.13
2022-10-07T01:00:37.684Z,4.77
2022-10-07T01:03:04.806Z,3.97
2022-10-07T01:05:32.099Z,4.67
2022-10-07T01:07:59.527Z,4.50
2022-10-07T01:10:30.264Z,4.67
2022-10-07T01:13:06.458Z,4.47
2022-10-07T01:15:36.603Z,4.93
2022-10-07T01:18:09.843Z,4.37
2022-10-07T01:20:36.974Z,4.17
2022-10-07T01:23:22.892Z,4.43
2022-10-07T01:25:58.432Z,4.43
2022-10-07T01:28:29.618Z,4.20
2022-10-07T01:30:58.879Z,5.37
2022-10-07T01:33:28.507Z,4.50
2022-10-07T01:35:56.990Z,4.67
2022-10-07T01:38:26.332Z,4.73
2022-10-07T01:40:57.497Z,4.20
2022-10-07T01:43:24.697Z,4.20
2022-10-07T01:45:53.210Z,4.60
2022-10-07T01:48:20.290Z,4.20
2022-10-07T01:50:48.242Z,4.47
2022-10-07T01:53:18.421Z,4.47
2022-10-07T01:55:51.549Z,4.67
2022-10-07T01:58:24.690Z,4.23
2022-10-07T02:01:06.440Z,4.63
2022-10-07T02:03:37.541Z,4.53
2022-10-07T02:06:19.919Z,4.60
2022-10-07T02:08:49.363Z,4.33
2022-10-07T02:11:21.313Z,4.60
2022-10-07T02:13:58.420Z,4.13
2022-10-07T02:16:37.768Z,4.17
2022-10-07T02:19:07.462Z,4.27
2022-10-07T02:21:36.380Z,4.50
2022-10-07T02:24:04.603Z,4.60
2022-10-07T02:26:33.838Z,4.53
2022-10-07T02:29:02.645Z,4.47
2022-10-07T02:31:30.818Z,4.30
2022-10-07T02:33:59.148Z,5.03
2022-10-07T02:36:29.005Z,5.53
2022-10-07T02:38:56.303Z,7.60
2022-10-07T02:41:32.476Z,8.43
2022-10-07T02:44:14.876Z,8.67
2022-10-07T02:46:45.750Z,9.93
2022-10-07T02:49:15.044Z,9.33
2022-10-07T02:51:50.760Z,10.53
2022-10-07T02:54:19.652Z,10.73
2022-10-07T02:56:47.549Z,15.80
2022-10-07T02:59:15.798Z,12.20
2022-10-07T03:01:45.511Z,13.70
2022-10-07T03:04:13.058Z,12.17
2022-10-07T03:06:42.396Z,12.50
2022-10-07T03:09:09.764Z,10.87
2022-10-07T03:11:38.869Z,10.47
2022-10-07T03:14:06.117Z,11.87
2022-10-07T03:16:33.563Z,9.33
2022-10-07T03:19:00.740Z,9.80
2022-10-07T03:21:28.052Z,9.20
2022-10-07T03:23:55.559Z,9.00
2022-10-07T03:26:22.632Z,8.73
2022-10-07T03:28:49.704Z,7.90
2022-10-07T03:31:16.950Z,8.20
2022-10-07T03:33:44.102Z,7.73
2022-10-07T03:36:11.290Z,7.40
2022-10-07T03:38:38.658Z,7.63
2022-10-07T03:41:06.408Z,7.43
2022-10-07T03:43:34.339Z,7.30
2022-10-07T03:46:02.392Z,7.77
2022-10-07T03:48:30.696Z,7.93
2022-10-07T03:50:57.827Z,7.83
2022-10-07T03:53:26.143Z,7.60
2022-10-07T03:55:53.474Z,7.50
2022-10-07T03:58:20.563Z,6.80
2022-10-07T04:00:47.860Z,6.93
2022-10-07T04:03:15.958Z,6.77
2022-10-07T04:05:45.254Z,6.67
2022-10-07T04:08:17.362Z,6.67
2022-10-07T04:10:44.462Z,6.60
2022-10-07T04:13:11.603Z,6.03
2022-10-07T04:15:38.816Z,6.20
2022-10-07T04:18:07.069Z,5.97
2022-10-07T04:20:34.158Z,6.23
2022-10-07T04:23:01.213Z,6.10
2022-10-07T04:25:34.278Z,7.43
2022-10-07T04:28:02.807Z,7.00
2022-10-07T04:30:33.807Z,6.67
2022-10-07T04:33:02.079Z,6.87
2022-10-07T04:35:29.420Z,7.00
2022-10-07T04:37:57.066Z,6.70
2022-10-07T04:40:25.256Z,6.97
2022-10-07T04:43:10.987Z,6.30
2022-10-07T04:45:38.606Z,7.10
2022-10-07T04:48:06.173Z,6.30
2022-10-07T04:50:34.628Z,6.43
2022-10-07T04:53:02.118Z,6.00
2022-10-07T04:55:29.216Z,6.57
2022-10-07T04:57:56.363Z,6.37
2022-10-07T05:00:24.684Z,6.27
2022-10-07T05:02:51.864Z,6.17
2022-10-07T05:05:18.940Z,6.83
2022-10-07T05:07:51.049Z,6.07
2022-10-07T05:10:18.403Z,6.20
2022-10-07T05:12:45.835Z,6.07
2022-10-07T05:15:13.381Z,5.23
2022-10-07T05:17:41.090Z,6.10
2022-10-07T05:20:09.264Z,6.27
2022-10-07T05:22:36.669Z,7.95
2022-10-07T05:25:03.840Z,7.20
2022-10-07T05:27:32.489Z,6.47
2022-10-07T05:29:59.551Z,6.87
2022-10-07T05:32:27.923Z,7.20
2022-10-07T05:34:55.073Z,6.93
2022-10-07T05:37:22.141Z,6.43
2022-10-07T05:39:49.248Z,7.10
2022-10-07T05:42:16.513Z,8.77
2022-10-07T05:44:43.625Z,8.23
2022-10-07T05:47:10.728Z,8.57
2022-10-07T05:49:37.867Z,9.03
2022-10-07T05:52:05.695Z,7.30
2022-10-07T05:54:33.231Z,7.50
2022-10-07T05:57:00.369Z,7.40
2022-10-07T05:59:27.437Z,6.50
2022-10-07T06:01:57.479Z,7.57
2022-10-07T06:04:24.657Z,7.50
2022-10-07T06:06:51.732Z,7.73
2022-10-07T06:09:37.607Z,15.77
2022-10-07T06:12:23.520Z,8.93
2022-10-07T06:14:50.753Z,16.63
2022-10-07T06:17:17.805Z,8.13
2022-10-07T06:19:44.856Z,11.00
2022-10-07T06:22:11.939Z,9.93
2022-10-07T06:24:39.022Z,7.67
2022-10-07T06:27:07.546Z,8.17
2022-10-07T06:29:34.650Z,7.33
2022-10-07T06:32:01.926Z,6.93
2022-10-07T06:34:29.004Z,6.17
2022-10-07T06:36:56.064Z,6.33
2022-10-07T06:39:23.201Z,6.80
2022-10-07T06:41:52.903Z,6.07
2022-10-07T06:44:20.005Z,7.10
2022-10-07T06:46:47.156Z,5.47
2022-10-07T06:49:14.206Z,5.33
2022-10-07T06:51:41.376Z,5.80
2022-10-07T06:54:08.539Z,6.10
2022-10-07T06:56:35.627Z,5.27
2022-10-07T06:59:03.219Z,5.33
2022-10-07T07:01:30.362Z,5.57
2022-10-07T07:03:57.541Z,4.97
2022-10-07T07:06:24.630Z,6.80
2022-10-07T07:08:51.830Z,6.20
2022-10-07T07:11:37.964Z,5.77
2022-10-07T07:14:05.449Z,5.70
2022-10-07T07:16:33.019Z,6.70
2022-10-07T07:19:08.645Z,5.90
2022-10-07T07:21:38.190Z,5.30
2022-10-07T07:24:06.388Z,5.20
2022-10-07T07:26:33.483Z,5.30
2022-10-07T07:29:02.308Z,5.23
2022-10-07T07:31:30.123Z,4.70
2022-10-07T07:33:59.557Z,5.23
2022-10-07T07:36:26.763Z,4.63
2022-10-07T07:38:58.551Z,5.17
2022-10-07T07:41:27.332Z,5.00
2022-10-07T07:43:55.458Z,4.50
2022-10-07T07:46:23.957Z,4.37
2022-10-07T07:48:51.915Z,4.30
2022-10-07T07:51:19.978Z,4.13
2022-10-07T07:53:49.740Z,3.90
2022-10-07T07:56:17.788Z,3.70
2022-10-07T07:58:45.083Z,4.00
2022-10-07T08:01:14.498Z,3.40
2022-10-07T08:03:43.156Z,3.87
2022-10-07T08:06:10.977Z,3.53
2022-10-07T08:08:38.400Z,3.17
2022-10-07T08:11:12.680Z,2.93
2022-10-07T08:13:41.264Z,3.00
2022-10-07T08:16:09.072Z,3.03
2022-10-07T08:18:36.204Z,3.67
2022-10-07T08:21:05.275Z,3.50
2022-10-07T08:23:32.355Z,3.20
2022-10-07T08:26:00.430Z,5.93
2022-10-07T08:28:28.295Z,5.00
2022-10-07T08:30:56.091Z,3.50
2022-10-07T08:33:23.547Z,2.90
2022-10-07T08:35:59.190Z,3.00
2022-10-07T08:38:26.466Z,2.80
2022-10-07T08:40:54.282Z,2.80
2022-10-07T08:43:24.502Z,3.03
2022-10-07T08:45:52.235Z,2.90
2022-10-07T08:48:23.106Z,2.53
2022-10-07T08:50:59.528Z,2.40
2022-10-07T08:53:31.669Z,2.60
2022-10-07T08:56:16.119Z,2.60
2022-10-07T08:58:46.258Z,2.42
2022-10-07T09:01:30.910Z,2.10
2022-10-07T09:04:06.897Z,2.03
2022-10-07T09:06:38.113Z,2.25
2022-10-07T09:09:11.532Z,2.33
2022-10-07T09:11:41.065Z,2.05
2022-10-07T09:14:26.979Z,2.67
2022-10-07T09:16:55.518Z,2.30
2022-10-07T09:19:30.079Z,2.55
2022-10-07T09:22:00.268Z,2.38
2022-10-07T09:24:29.214Z,2.60
2022-10-07T09:26:58.516Z,2.30
2022-10-07T09:29:26.670Z,2.67
2022-10-07T09:31:54.275Z,2.75
2022-10-07T09:34:23.406Z,2.40
2022-10-07T09:37:09.678Z,2.38
2022-10-07T09:39:36.765Z,2.50
2022-10-07T09:42:09.133Z,2.30
2022-10-07T09:44:37.074Z,2.63
2022-10-07T09:47:21.093Z,2.47
2022-10-07T09:49:59.375Z,2.60
2022-10-07T09:52:27.564Z,2.42
2022-10-07T09:54:56.157Z,2.20
2022-10-07T09:57:24.572Z,2.40
2022-10-07T09:59:51.848Z,2.47
2022-10-07T10:02:24.962Z,2.70
2022-10-07T10:04:53.776Z,2.60
2022-10-07T10:07:22.405Z,2.28
2022-10-07T10:09:53.632Z,2.40
2022-10-07T10:12:22.018Z,2.38
2022-10-07T10:15:09.327Z,3.03
2022-10-07T10:17:36.403Z,2.70
2022-10-07T10:20:22.370Z,2.40
2022-10-07T10:22:49.470Z,2.75
2022-10-07T10:25:37.672Z,2.88
2022-10-07T10:28:13.788Z,2.67
2022-10-07T10:30:47.265Z,2.50
2022-10-07T10:33:25.714Z,2.80
2022-10-07T10:36:05.258Z,3.15
2022-10-07T10:38:34.332Z,3.55
2022-10-07T10:41:12.568Z,3.42
2022-10-07T10:43:51.990Z,3.75
2022-10-07T10:46:22.169Z,4.60
2022-10-07T10:49:15.255Z,6.00
2022-10-07T10:51:50.929Z,5.65
2022-10-07T10:54:24.071Z,6.00
2022-10-07T10:56:55.792Z,5.93
2022-10-07T10:59:35.105Z,4.88
2022-10-07T11:02:06.962Z,4.25
2022-10-07T11:04:43.510Z,4.35
2022-10-07T11:07:22.977Z,4.65
2022-10-07T11:09:52.847Z,4.38
2022-10-07T11:12:25.381Z,4.88
2022-10-07T11:14:57.848Z,4.50
2022-10-07T11:17:27.973Z,4.40
2022-10-07T11:20:13.818Z,4.28
2022-10-07T11:22:43.731Z,4.53
2022-10-07T11:25:25.538Z,3.80
2022-10-07T11:27:54.550Z,4.40
2022-10-07T11:30:23.745Z,4.38
2022-10-07T11:32:55.793Z,4.28
2022-10-07T11:35:23.459Z,4.05
2022-10-07T11:38:09.375Z,3.88
2022-10-07T11:40:41.938Z,4.53
2022-10-07T11:43:13.559Z,4.43
2022-10-07T11:45:43.335Z,3.38
2022-10-07T11:48:14.829Z,3.15
2022-10-07T11:50:45.436Z,3.40
2022-10-07T11:53:16.951Z,3.55
2022-10-07T11:55:51.468Z,3.53
2022-10-07T11:58:26.146Z,3.67
2022-10-07T12:01:13.170Z,3.28
2022-10-07T12:03:40.372Z,3.65
2022-10-07T12:06:10.191Z,3.50
2022-10-07T12:08:38.511Z,3.78
2022-10-07T12:11:15.098Z,3.45
2022-10-07T12:13:43.730Z,3.22
2022-10-07T12:16:32.243Z,3.78
2022-10-07T12:19:09.784Z,3.50
2022-10-07T12:21:55.622Z,3.78
2022-10-07T12:24:22.766Z,3.55
2022-10-07T12:26:50.302Z,3.42
2022-10-07T12:29:22.491Z,3.30
2022-10-07T12:31:49.677Z,3.67
2022-10-07T12:34:23.129Z,3.50
2022-10-07T12:36:50.215Z,2.78
2022-10-07T12:39:17.302Z,3.17
2022-10-07T12:41:46.320Z,3.70
2022-10-07T12:44:32.121Z,3.58
2022-10-07T12:47:01.359Z,3.55
2022-10-07T12:49:36.995Z,3.63
2022-10-07T12:52:36.505Z,3.30
2022-10-07T12:55:07.363Z,3.33
2022-10-07T12:57:35.586Z,3.40
2022-10-07T13:00:10.568Z,3.40
2022-10-07T13:02:57.074Z,3.75
2022-10-07T13:05:43.711Z,3.50
2022-10-07T13:08:13.512Z,3.28
2022-10-07T13:10:49.240Z,3.63
2022-10-07T13:13:20.451Z,3.17
2022-10-07T13:15:53.649Z,3.22
2022-10-07T13:18:22.878Z,3.72
2022-10-07T13:21:03.269Z,3.17
2022-10-07T13:23:31.979Z,3.35
2022-10-07T13:26:00.263Z,3.10
2022-10-07T13:28:36.079Z,3.22
2022-10-07T13:31:17.877Z,3.10
2022-10-07T13:33:45.031Z,3.60
2022-10-07T13:36:21.308Z,3.17
2022-10-07T13:38:50.159Z,3.20
2022-10-07T13:41:23.386Z,3.08
2022-10-07T13:43:54.540Z,3.20
2022-10-07T13:46:25.802Z,3.20
2022-10-07T13:48:56.188Z,3.00
2022-10-07T13:51:34.638Z,3.60
2022-10-07T13:54:04.106Z,3.42
2022-10-07T13:56:35.928Z,3.03
2022-10-07T13:59:03.245Z,3.00
2022-10-07T14:01:32.249Z,3.25
2022-10-07T14:04:03.749Z,2.92
2022-10-07T14:06:37.282Z,2.95
2022-10-07T14:09:04.408Z,3.15
2022-10-07T14:11:31.497Z,3.00
2022-10-07T14:13:59.625Z,2.97
2022-10-07T14:16:27.481Z,3.10
2022-10-07T14:18:55.244Z,3.03
2022-10-07T14:21:22.368Z,3.00
2022-10-07T14:23:49.479Z,3.05
2022-10-07T14:26:17.922Z,3.13
2022-10-07T14:28:45.305Z,3.28
2022-10-07T14:31:36.980Z,2.97
2022-10-07T14:34:31.505Z,3.25
2022-10-07T14:37:06.000Z,3.28
2022-10-07T14:39:33.068Z,3.63
2022-10-07T14:42:00.337Z,3.08
2022-10-07T14:44:27.434Z,3.60
2022-10-07T14:47:07.856Z,3.22
2022-10-07T14:49:35.604Z,3.10
2022-10-07T14:52:03.812Z,3.10
2022-10-07T14:54:31.244Z,3.17
2022-10-07T14:56:58.320Z,2.80
2022-10-07T14:59:25.412Z,2.92
2022-10-07T15:01:52.479Z,3.00
2022-10-07T15:04:19.754Z,3.40
2022-10-07T15:06:50.752Z,3.40
2022-10-07T15:09:18.778Z,3.90
2022-10-07T15:11:45.891Z,4.00
2022-10-07T15:14:13.003Z,4.55
2022-10-07T15:16:41.632Z,3.38
2022-10-07T15:19:09.286Z,3.50
2022-10-07T15:21:36.362Z,4.13
2022-10-07T15:24:03.661Z,3.60
2022-10-07T15:26:31.167Z,3.10
2022-10-07T15:28:58.981Z,2.90
2022-10-07T15:31:30.092Z,3.55
2022-10-07T15:33:57.803Z,3.45
2022-10-07T15:36:26.494Z,3.58
2022-10-07T15:38:54.321Z,3.72
2022-10-07T15:41:33.844Z,3.28
2022-10-07T15:44:02.059Z,3.72
2022-10-07T15:46:29.285Z,3.47
2022-10-07T15:48:56.792Z,3.20
2022-10-07T15:51:25.466Z,3.17
2022-10-07T15:53:52.943Z,3.95
2022-10-07T15:56:20.181Z,3.45
2022-10-07T15:58:47.832Z,3.35
2022-10-07T16:01:15.504Z,3.63
2022-10-07T16:03:44.296Z,4.72
2022-10-07T16:06:14.543Z,4.90
2022-10-07T16:08:41.828Z,5.47
2022-10-07T16:11:09.969Z,4.70
2022-10-07T16:13:41.035Z,5.40
2022-10-07T16:16:09.573Z,5.53
2022-10-07T16:18:38.034Z,5.53
2022-10-07T16:24:35.600Z,7.00
2022-10-07T16:27:02.879Z,9.90
2022-10-07T16:29:48.556Z,10.90
2022-10-07T16:32:15.641Z,10.37
2022-10-07T16:34:44.405Z,7.70
2022-10-07T16:37:12.777Z,8.07
2022-10-07T16:39:40.050Z,8.53
2022-10-07T16:42:07.483Z,7.90
2022-10-07T16:44:35.333Z,6.87
2022-10-07T16:47:02.974Z,5.40
2022-10-07T16:49:30.388Z,5.90
2022-10-07T16:51:58.370Z,5.20
2022-10-07T16:54:25.809Z,5.00
2022-10-07T16:56:53.318Z,4.63
2022-10-07T16:59:23.182Z,4.93
2022-10-07T17:01:52.198Z,4.93
2022-10-07T17:04:19.409Z,4.60
2022-10-07T17:06:46.924Z,5.70
2022-10-07T17:09:14.561Z,5.63
2022-10-07T17:11:41.903Z,5.23
2022-10-07T17:14:10.799Z,5.10
2022-10-07T17:16:39.394Z,5.97
2022-10-07T17:19:07.569Z,5.50
2022-10-07T17:21:36.123Z,6.00
2022-10-07T17:24:03.606Z,5.70
2022-10-07T17:26:30.738Z,6.00
2022-10-07T17:29:08.190Z,5.77
2022-10-07T17:31:36.337Z,4.77
2022-10-07T17:34:03.496Z,5.63
2022-10-07T17:36:32.180Z,6.20
2022-10-07T17:38:59.731Z,6.00
2022-10-07T17:41:28.155Z,6.20
2022-10-07T17:43:57.310Z,7.07
2022-10-07T17:46:26.036Z,6.83
2022-10-07T17:48:54.582Z,8.00
2022-10-07T17:51:22.596Z,9.00
2022-10-07T17:53:50.393Z,9.30
2022-10-07T17:56:17.901Z,9.43
2022-10-07T17:58:46.117Z,8.70
2022-10-07T18:01:14.969Z,7.90
2022-10-07T18:03:42.538Z,7.93
2022-10-07T18:06:10.651Z,8.00
2022-10-07T18:08:41.759Z,7.10
2022-10-07T18:11:09.520Z,8.07
2022-10-07T18:13:55.357Z,8.93
2022-10-07T18:16:22.825Z,8.63
2022-10-07T18:18:57.040Z,9.00
2022-10-07T18:21:24.515Z,9.23
2022-10-07T18:23:52.617Z,8.17
2022-10-07T18:26:19.942Z,8.20
2022-10-07T18:28:47.415Z,8.33
2022-10-07T18:31:15.708Z,8.57
2022-10-07T18:33:43.138Z,8.03
2022-10-07T18:36:11.502Z,9.03
2022-10-07T18:38:40.605Z,7.40
2022-10-07T18:41:09.066Z,8.10
2022-10-07T18:43:36.394Z,8.30
2022-10-07T18:46:07.699Z,8.83
2022-10-07T18:48:35.739Z,9.87
2022-10-07T18:51:03.164Z,8.00
2022-10-07T18:53:34.219Z,8.87
2022-10-07T18:56:02.111Z,8.80
2022-10-07T18:58:29.631Z,9.00
2022-10-07T19:00:56.848Z,9.43
2022-10-07T19:03:24.045Z,9.93
2022-10-07T19:05:51.185Z,10.37
2022-10-07T19:08:19.281Z,9.87
2022-10-07T19:10:46.841Z,9.27
2022-10-07T19:13:33.126Z,9.23
2022-10-07T19:16:03.770Z,10.00
2022-10-07T19:18:33.925Z,10.73
2022-10-07T19:21:01.935Z,9.70
2022-10-07T19:23:29.462Z,9.70
2022-10-07T19:25:57.520Z,9.67
2022-10-07T19:28:25.785Z,9.67
2022-10-07T19:30:53.550Z,9.37
2022-10-07T19:33:20.641Z,10.70
2022-10-07T19:35:53.776Z,10.57
2022-10-07T19:38:20.912Z,9.83
2022-10-07T19:40:48.064Z,9.97
2022-10-07T19:43:15.164Z,10.57
2022-10-07T19:45:43.097Z,10.93
2022-10-07T19:48:14.408Z,11.03
2022-10-07T19:50:41.809Z,11.23
2022-10-07T19:53:10.239Z,11.60
2022-10-07T19:55:37.348Z,11.73
2022-10-07T19:58:04.515Z,12.97
2022-10-07T20:00:32.108Z,12.50
2022-10-07T20:02:59.250Z,12.10
2022-10-07T20:05:31.564Z,12.73
2022-10-07T20:07:59.620Z,13.30
2022-10-07T20:10:27.371Z,18.40
2022-10-07T20:12:54.472Z,17.80
2022-10-07T20:15:23.159Z,17.07
2022-10-07T20:17:50.311Z,14.27
2022-10-07T20:20:18.455Z,12.97
2022-10-07T20:22:49.284Z,12.93
2022-10-07T20:25:16.765Z,13.57
2022-10-07T20:27:44.205Z,13.67
2022-10-07T20:30:17.899Z,13.60
2022-10-07T20:32:45.637Z,13.27
2022-10-07T20:35:12.998Z,13.60
2022-10-07T20:37:40.055Z,14.17
2022-10-07T20:40:25.854Z,14.97
2022-10-07T20:42:54.136Z,14.33
2022-10-07T20:45:21.370Z,15.90
2022-10-07T20:47:48.432Z,16.50
2022-10-07T20:50:15.587Z,15.03
2022-10-07T20:52:42.734Z,14.17
2022-10-07T20:55:11.503Z,13.97
2022-10-07T20:57:38.609Z,15.70
2022-10-07T21:00:12.524Z,15.77
2022-10-07T21:02:39.684Z,15.20
2022-10-07T21:05:07.931Z,15.67
2022-10-07T21:07:35.058Z,15.67
2022-10-07T21:10:02.164Z,15.87
2022-10-07T21:12:29.241Z,15.60
2022-10-07T21:15:00.427Z,15.60
2022-10-07T21:17:27.803Z,15.83
2022-10-07T21:19:55.835Z,16.83
2022-10-07T21:22:23.090Z,16.97
2022-10-07T21:24:50.616Z,17.37
2022-10-07T21:27:17.977Z,15.87
2022-10-07T21:29:48.590Z,15.57
2022-10-07T21:32:15.922Z,15.50
2022-10-07T21:34:43.595Z,15.83
2022-10-07T21:37:10.738Z,15.53
2022-10-07T21:39:38.172Z,16.30
2022-10-07T21:42:05.407Z,15.50
2022-10-07T21:44:33.453Z,14.20
2022-10-07T21:47:00.839Z,14.13
2022-10-07T21:49:27.912Z,14.53
2022-10-07T21:51:55.082Z,14.67
2022-10-07T21:54:22.215Z,15.07
2022-10-07T21:56:50.135Z,14.83
2022-10-07T21:59:17.259Z,14.90
2022-10-07T22:01:44.431Z,14.93
2022-10-07T22:04:15.701Z,14.90
2022-10-07T22:07:01.359Z,15.23
2022-10-07T22:09:28.959Z,16.67
2022-10-07T22:11:56.078Z,15.53
2022-10-07T22:14:23.567Z,16.10
2022-10-07T22:16:50.677Z,15.57
2022-10-07T22:19:17.912Z,16.73
2022-10-07T22:21:45.769Z,16.13
2022-10-07T22:24:13.886Z,15.43
2022-10-07T22:26:42.429Z,15.43
2022-10-07T22:29:10.493Z,15.37
2022-10-07T22:31:38.167Z,15.70
2022-10-07T22:34:06.172Z,15.77
2022-10-07T22:36:33.363Z,16.23
2022-10-07T22:39:01.425Z,15.73
2022-10-07T22:41:29.433Z,15.10
2022-10-07T22:43:56.571Z,14.90
2022-10-07T22:46:27.883Z,13.70
2022-10-07T22:48:56.459Z,13.73
2022-10-07T22:51:24.406Z,14.63
2022-10-07T22:53:53.481Z,15.37
2022-10-07T22:56:21.283Z,15.97
2022-10-07T22:58:57.976Z,15.53
2022-10-07T23:01:25.443Z,15.83
2022-10-07T23:03:53.301Z,16.23
2022-10-07T23:06:20.808Z,15.93
2022-10-07T23:08:48.690Z,16.00
2022-10-07T23:11:23.495Z,16.30
2022-10-07T23:13:51.267Z,16.57
2022-10-07T23:16:20.206Z,15.97
2022-10-07T23:18:47.987Z,16.67
2022-10-07T23:21:38.243Z,15.97
2022-10-07T23:24:08.201Z,15.13
2022-10-07T23:26:35.997Z,15.63
2022-10-07T23:29:03.436Z,17.30
2022-10-07T23:31:31.814Z,18.13
2022-10-07T23:33:59.789Z,18.23
2022-10-07T23:36:27.382Z,19.13
2022-10-07T23:38:54.486Z,21.33
2022-10-07T23:41:25.757Z,19.60
2022-10-07T23:43:53.570Z,20.20
2022-10-07T23:46:21.186Z,20.50
2022-10-07T23:48:48.385Z,21.53
2022-10-07T23:51:17.264Z,20.37
2022-10-07T23:53:44.479Z,17.20
2022-10-07T23:56:11.606Z,16.07
2022-10-07T23:58:38.703Z,15.77
